createdAt,value
2019-05-10T00:00:10.067Z,97.4
2019-05-10T00:01:11.695Z,97.4
2019-05-10T00:02:13.559Z,97.4
2019-05-10T00:03:15.431Z,97.4
2019-05-10T00:04:17.023Z,97.5
2019-05-10T00:05:18.615Z,97.4
2019-05-10T00:06:20.206Z,97.4
2019-05-10T00:07:21.799Z,97.3
2019-05-10T00:08:23.667Z,97.3
2019-05-10T00:09:25.250Z,97.3
2019-05-10T00:10:26.835Z,97.4
2019-05-10T00:11:28.425Z,97.5
2019-05-10T00:12:30.294Z,97.5
2019-05-10T00:13:31.882Z,97.5
2019-05-10T00:14:33.475Z,97.5
2019-05-10T00:15:35.057Z,97.4
2019-05-10T00:16:36.655Z,97.4
2019-05-10T00:17:38.233Z,97.4
2019-05-10T00:18:40.116Z,97.3
2019-05-10T00:19:41.979Z,97.2
2019-05-10T00:20:43.845Z,97.4
2019-05-10T00:21:45.713Z,97.2
2019-05-10T00:22:47.287Z,97.1
2019-05-10T00:23:49.156Z,97
2019-05-10T00:25:04.875Z,97
2019-05-10T00:26:06.988Z,97
2019-05-10T00:27:08.865Z,97.1
2019-05-10T00:28:10.453Z,97.1
2019-05-10T00:29:12.318Z,97.1
2019-05-10T00:30:14.182Z,97.2
2019-05-10T00:31:16.043Z,97.2
2019-05-10T00:32:17.632Z,97.2
2019-05-10T00:33:19.499Z,97.3
2019-05-10T00:34:21.096Z,97.2
2019-05-10T00:35:22.685Z,97.2
2019-05-10T00:36:24.549Z,97.2
2019-05-10T00:37:26.411Z,97.3
2019-05-10T00:38:28.283Z,97.3
2019-05-10T00:39:30.144Z,97.3
2019-05-10T00:40:31.441Z,97.2
2019-05-10T00:41:33.307Z,97.2
2019-05-10T00:42:35.180Z,97.2
2019-05-10T00:43:37.034Z,97.1
2019-05-10T00:44:38.904Z,97.1
2019-05-10T00:45:40.770Z,97.2
2019-05-10T00:46:42.637Z,97
2019-05-10T00:47:44.499Z,97
2019-05-10T00:48:46.363Z,96.8
2019-05-10T00:49:48.222Z,96.8
2019-05-10T00:50:50.088Z,96.7
2019-05-10T00:51:51.949Z,96.7
2019-05-10T00:52:53.810Z,96.6
2019-05-10T00:53:55.667Z,96.6
2019-05-10T00:54:57.243Z,96.6
2019-05-10T00:55:59.121Z,96.4
2019-05-10T00:57:00.707Z,96.6
2019-05-10T00:58:02.280Z,96.6
2019-05-10T00:59:03.864Z,96.6
2019-05-10T01:00:05.729Z,96.8
2019-05-10T01:01:07.316Z,96.8
2019-05-10T01:02:08.912Z,96.9
2019-05-10T01:03:10.775Z,96.8
2019-05-10T01:04:12.364Z,96.7
2019-05-10T01:05:14.220Z,96.8
2019-05-10T01:06:16.081Z,96.8
2019-05-10T01:07:17.947Z,96.7
2019-05-10T01:08:19.544Z,96.5
2019-05-10T01:09:21.396Z,96.6
2019-05-10T01:10:23.256Z,96.4
2019-05-10T01:11:25.189Z,96.3
2019-05-10T01:12:27.047Z,96.4
2019-05-10T01:13:28.918Z,96.3
2019-05-10T01:14:30.777Z,96.3
2019-05-10T01:15:32.650Z,96.3
2019-05-10T01:16:34.513Z,96.4
2019-05-10T01:17:36.372Z,96.4
2019-05-10T01:18:37.950Z,96.4
2019-05-10T01:19:39.816Z,96.3
2019-05-10T01:20:41.687Z,96.5
2019-05-10T01:21:43.546Z,96.5
2019-05-10T01:22:45.418Z,96.5
2019-05-10T01:23:47.278Z,96.5
2019-05-10T01:24:49.144Z,96.6
2019-05-10T01:25:51.012Z,96.5
2019-05-10T01:26:52.869Z,96.4
2019-05-10T01:27:54.734Z,96.4
2019-05-10T01:28:56.593Z,96.4
2019-05-10T01:29:58.455Z,96.2
2019-05-10T01:31:00.322Z,96.4
2019-05-10T01:32:02.195Z,96.4
2019-05-10T01:33:04.056Z,96.4
2019-05-10T01:34:05.918Z,96.4
2019-05-10T01:35:07.792Z,96.5
2019-05-10T01:36:09.656Z,96.4
2019-05-10T01:37:11.518Z,96.3
2019-05-10T01:38:13.456Z,96.3
2019-05-10T01:39:15.316Z,96.2
2019-05-10T01:40:17.176Z,96.2
2019-05-10T01:41:19.039Z,96.2
2019-05-10T01:42:20.902Z,96.2
2019-05-10T01:43:22.764Z,96.2
2019-05-10T01:44:24.634Z,96.3
2019-05-10T01:45:26.529Z,96.4
2019-05-10T01:46:28.395Z,96.3
2019-05-10T01:47:29.980Z,96.3
2019-05-10T01:48:31.845Z,96.4
2019-05-10T01:49:33.712Z,96.3
2019-05-10T01:50:35.573Z,96.3
2019-05-10T01:51:37.487Z,96.3
2019-05-10T01:52:39.348Z,96.2
2019-05-10T01:53:41.214Z,96
2019-05-10T01:54:43.089Z,96
2019-05-10T01:55:53.082Z,95.9
2019-05-10T01:56:54.966Z,96
2019-05-10T01:57:56.553Z,95.9
2019-05-10T01:58:58.424Z,96
2019-05-10T02:00:00.302Z,95.9
2019-05-10T02:01:02.191Z,95.9
2019-05-10T02:02:03.982Z,95.9
2019-05-10T02:03:05.898Z,95.8
2019-05-10T02:04:07.189Z,95.8
2019-05-10T02:05:09.054Z,95.7
2019-05-10T02:06:10.917Z,95.8
2019-05-10T02:07:12.780Z,95.9
2019-05-10T02:08:14.644Z,95.8
2019-05-10T02:09:16.502Z,95.8
2019-05-10T02:10:18.444Z,95.8
2019-05-10T02:11:20.314Z,96
2019-05-10T02:12:21.904Z,96.2
2019-05-10T02:13:23.763Z,96.1
2019-05-10T02:14:25.350Z,96.4
2019-05-10T02:15:26.978Z,96.4
2019-05-10T02:16:28.846Z,96.5
2019-05-10T02:17:30.429Z,96.5
2019-05-10T02:18:32.015Z,96.3
2019-05-10T02:19:33.883Z,96.3
2019-05-10T02:20:35.745Z,96.4
2019-05-10T02:21:37.607Z,96.3
2019-05-10T02:22:39.548Z,96.3
2019-05-10T02:23:41.417Z,96.2
2019-05-10T02:24:43.295Z,96.2
2019-05-10T02:25:45.171Z,96
2019-05-10T02:26:47.026Z,96
2019-05-10T02:27:48.325Z,96
2019-05-10T02:28:50.197Z,96
2019-05-10T02:29:52.076Z,95.9
2019-05-10T02:30:53.941Z,95.8
2019-05-10T02:31:55.534Z,95.9
2019-05-10T02:32:57.403Z,95.8
2019-05-10T02:33:59.267Z,95.8
2019-05-10T02:35:01.133Z,95.6
2019-05-10T02:36:03.490Z,95.7
2019-05-10T02:37:05.351Z,95.7
2019-05-10T02:38:07.231Z,95.7
2019-05-10T02:39:09.097Z,95.6
2019-05-10T02:40:10.957Z,95.7
2019-05-10T02:41:12.819Z,95.7
2019-05-10T02:42:14.694Z,95.7
2019-05-10T02:43:16.628Z,95.6
2019-05-10T02:44:18.486Z,95.8
2019-05-10T02:45:20.076Z,95.7
2019-05-10T02:46:21.813Z,95.8
2019-05-10T02:47:23.675Z,95.7
2019-05-10T02:48:25.536Z,95.8
2019-05-10T02:49:27.406Z,95.8
2019-05-10T02:50:28.994Z,95.7
2019-05-10T02:51:30.879Z,95.7
2019-05-10T02:52:32.833Z,95.7
2019-05-10T02:53:34.695Z,95.7
2019-05-10T02:54:36.557Z,95.6
2019-05-10T02:55:38.427Z,95.7
2019-05-10T02:56:40.292Z,95.6
2019-05-10T02:57:42.160Z,95.7
2019-05-10T02:58:44.041Z,95.7
2019-05-10T02:59:45.618Z,95.8
2019-05-10T03:00:47.482Z,95.8
2019-05-10T03:01:49.348Z,95.7
2019-05-10T03:02:51.213Z,95.9
2019-05-10T03:03:53.076Z,95.9
2019-05-10T03:04:54.936Z,95.9
2019-05-10T03:05:56.805Z,95.9
2019-05-10T03:06:58.679Z,95.8
2019-05-10T03:08:00.269Z,95.9
2019-05-10T03:09:01.849Z,95.8
2019-05-10T03:10:03.737Z,95.6
2019-05-10T03:11:05.308Z,95.7
2019-05-10T03:12:06.899Z,95.5
2019-05-10T03:13:08.764Z,95.7
2019-05-10T03:14:10.630Z,95.7
2019-05-10T03:15:12.494Z,95.9
2019-05-10T03:16:14.095Z,95.5
2019-05-10T03:17:15.669Z,95.6
2019-05-10T03:18:17.529Z,95.8
2019-05-10T03:19:19.402Z,95.8
2019-05-10T03:20:21.331Z,95.9
2019-05-10T03:21:23.193Z,95.8
2019-05-10T03:22:25.291Z,95.8
2019-05-10T03:23:27.200Z,95.8
2019-05-10T03:24:29.065Z,95.9
2019-05-10T03:25:30.935Z,95.9
2019-05-10T03:26:51.537Z,95.8
2019-05-10T03:27:53.509Z,95.9
2019-05-10T03:28:55.383Z,95.9
2019-05-10T03:29:57.296Z,95.9
2019-05-10T03:30:59.157Z,95.9
2019-05-10T03:32:01.191Z,96
2019-05-10T03:33:03.253Z,96
2019-05-10T03:34:05.116Z,96
2019-05-10T03:35:06.714Z,95.9
2019-05-10T03:36:08.619Z,95.9
2019-05-10T03:37:10.484Z,95.9
2019-05-10T03:38:12.386Z,95.7
2019-05-10T03:39:13.983Z,95.8
2019-05-10T03:40:15.844Z,95.8
2019-05-10T03:41:17.738Z,95.8
2019-05-10T03:42:19.638Z,95.9
2019-05-10T03:43:21.503Z,96
2019-05-10T03:44:23.379Z,95.9
2019-05-10T03:45:24.957Z,95.9
2019-05-10T03:46:26.818Z,95.9
2019-05-10T03:47:28.681Z,95.8
2019-05-10T03:48:30.564Z,95.9
2019-05-10T03:49:32.418Z,95.9
2019-05-10T03:50:34.269Z,95.9
2019-05-10T03:51:35.856Z,95.9
2019-05-10T03:52:37.713Z,96
2019-05-10T03:53:39.576Z,95.9
2019-05-10T03:54:41.449Z,96
2019-05-10T03:55:43.316Z,96
2019-05-10T03:56:45.177Z,96
2019-05-10T03:57:47.039Z,95.9
2019-05-10T03:58:48.912Z,96
2019-05-10T03:59:50.825Z,95.9
2019-05-10T04:00:52.689Z,96
2019-05-10T04:01:54.559Z,95.9
2019-05-10T04:02:56.422Z,96
2019-05-10T04:03:58.284Z,96
2019-05-10T04:05:00.158Z,95.9
2019-05-10T04:06:02.018Z,95.8
2019-05-10T04:07:03.897Z,95.8
2019-05-10T04:08:05.484Z,95.8
2019-05-10T04:09:07.344Z,95.6
2019-05-10T04:10:09.220Z,95.7
2019-05-10T04:11:11.070Z,95.8
2019-05-10T04:12:12.648Z,95.6
2019-05-10T04:13:14.511Z,95.7
2019-05-10T04:14:16.104Z,95.7
2019-05-10T04:15:17.964Z,95.6
2019-05-10T04:16:19.548Z,95.5
2019-05-10T04:17:21.402Z,95.7
2019-05-10T04:18:23.266Z,95.4
2019-05-10T04:19:25.129Z,95.4
2019-05-10T04:20:26.990Z,95.4
2019-05-10T04:21:28.857Z,95.5
2019-05-10T04:22:30.720Z,95.4
2019-05-10T04:23:32.596Z,95.4
2019-05-10T04:24:37.092Z,95.3
2019-05-10T04:25:38.959Z,95.2
2019-05-10T04:26:40.815Z,95.2
2019-05-10T04:27:42.690Z,95.2
2019-05-10T04:28:44.551Z,95.1
2019-05-10T04:29:46.437Z,95.1
2019-05-10T04:30:48.303Z,95.2
2019-05-10T04:31:50.170Z,95.1
2019-05-10T04:32:52.039Z,95.1
2019-05-10T04:33:53.898Z,95.2
2019-05-10T04:34:55.762Z,95.1
2019-05-10T04:35:57.635Z,95.3
2019-05-10T04:36:59.522Z,95.2
2019-05-10T04:38:01.361Z,95.1
2019-05-10T04:39:03.231Z,95.3
2019-05-10T04:40:04.814Z,94.9
2019-05-10T04:41:06.696Z,94.8
2019-05-10T04:42:08.551Z,94.9
2019-05-10T04:43:10.404Z,94.9
2019-05-10T04:44:12.268Z,94.8
2019-05-10T04:45:14.131Z,94.7
2019-05-10T04:46:16.003Z,94.8
2019-05-10T04:47:17.586Z,94.9
2019-05-10T04:48:19.448Z,94.9
2019-05-10T04:49:21.315Z,94.8
2019-05-10T04:50:23.183Z,94.7
2019-05-10T04:51:24.771Z,94.6
2019-05-10T04:52:26.355Z,94.5
2019-05-10T04:53:28.217Z,94.6
2019-05-10T04:54:30.089Z,94.6
2019-05-10T04:55:31.943Z,94.4
2019-05-10T04:56:33.604Z,94.4
2019-05-10T04:57:51.311Z,93.9
2019-05-10T04:58:53.261Z,94.3
2019-05-10T04:59:55.126Z,94.4
2019-05-10T05:00:57.048Z,94.4
2019-05-10T05:01:58.901Z,94.5
2019-05-10T05:03:00.771Z,94.4
2019-05-10T05:04:02.428Z,94.4
2019-05-10T05:05:04.388Z,94.3
2019-05-10T05:06:06.247Z,94.5
2019-05-10T05:07:08.106Z,94.3
2019-05-10T05:08:09.971Z,94.1
2019-05-10T05:09:11.840Z,94.3
2019-05-10T05:10:13.705Z,94.3
2019-05-10T05:11:15.568Z,94.4
2019-05-10T05:12:17.432Z,94.6
2019-05-10T05:13:19.295Z,94.5
2019-05-10T05:14:20.895Z,94.3
2019-05-10T05:15:22.766Z,94.4
2019-05-10T05:16:24.352Z,94.4
2019-05-10T05:17:25.935Z,94.5
2019-05-10T05:18:27.795Z,94.3
2019-05-10T05:19:29.656Z,94.3
2019-05-10T05:20:31.521Z,94.2
2019-05-10T05:21:33.433Z,94.2
2019-05-10T05:22:35.309Z,94.4
2019-05-10T05:23:37.170Z,94.6
2019-05-10T05:24:39.035Z,94.6
2019-05-10T05:25:42.366Z,94.5
2019-05-10T05:26:43.959Z,94.7
2019-05-10T05:27:45.825Z,94.7
2019-05-10T05:28:47.686Z,94.6
2019-05-10T05:29:49.552Z,94.8
2019-05-10T05:30:51.139Z,94.9
2019-05-10T05:32:00.886Z,94.7
2019-05-10T05:33:05.181Z,94.6
2019-05-10T05:34:07.044Z,94.9
2019-05-10T05:35:08.905Z,94.7
2019-05-10T05:36:10.499Z,94.7
2019-05-10T05:37:12.373Z,94.6
2019-05-10T05:38:14.235Z,94.7
2019-05-10T05:39:16.106Z,94.6
2019-05-10T05:40:17.697Z,94.6
2019-05-10T05:41:19.559Z,94.7
2019-05-10T05:42:27.840Z,94.8
2019-05-10T05:43:30.542Z,94.8
2019-05-10T05:44:32.408Z,94.9
2019-05-10T05:45:36.165Z,94.8
2019-05-10T05:46:37.747Z,94.8
2019-05-10T05:47:44.778Z,94.8
2019-05-10T05:48:46.797Z,94.7
2019-05-10T05:49:52.003Z,94.7
2019-05-10T05:50:53.871Z,94.8
2019-05-10T05:51:55.733Z,94.8
2019-05-10T05:52:57.596Z,94.8
2019-05-10T05:54:03.345Z,94.8
2019-05-10T05:55:05.760Z,94.8
2019-05-10T05:56:14.588Z,94.9
2019-05-10T05:57:16.599Z,94.7
2019-05-10T05:58:27.817Z,94.8
2019-05-10T05:59:29.403Z,94.7
2019-05-10T06:00:31.273Z,94.6
2019-05-10T06:01:47.406Z,94.7
2019-05-10T06:02:49.279Z,94.6
2019-05-10T06:03:51.141Z,94.7
2019-05-10T06:04:53.005Z,94.6
2019-05-10T06:05:54.869Z,94.7
2019-05-10T06:07:00.558Z,94.9
2019-05-10T06:08:02.626Z,95
2019-05-10T06:09:04.610Z,94.8
2019-05-10T06:10:16.872Z,94.5
2019-05-10T06:11:21.399Z,94.6
2019-05-10T06:12:23.262Z,94.6
2019-05-10T06:13:32.502Z,94.8
2019-05-10T06:14:34.498Z,94.9
2019-05-10T06:15:36.362Z,94.6
2019-05-10T06:16:38.222Z,94.6
2019-05-10T06:17:40.094Z,94.4
2019-05-10T06:18:48.907Z,94.6
2019-05-10T06:19:50.860Z,94.8
2019-05-10T06:20:52.732Z,94.7
2019-05-10T06:22:04.316Z,94.6
2019-05-10T06:23:08.382Z,94.6
2019-05-10T06:24:15.736Z,94.6
2019-05-10T06:25:17.696Z,94.8
2019-05-10T06:26:28.679Z,94.8
2019-05-10T06:27:30.701Z,94.8
2019-05-10T06:29:03.622Z,94.7
2019-05-10T06:30:18.524Z,94.9
2019-05-10T06:31:20.108Z,94.6
2019-05-10T06:32:22.037Z,94.5
2019-05-10T06:33:23.904Z,94.6
2019-05-10T06:34:25.765Z,94.5
2019-05-10T06:35:34.340Z,94.2
2019-05-10T06:36:36.201Z,94.4
2019-05-10T06:37:37.783Z,94.5
2019-05-10T06:38:39.648Z,94.4
2019-05-10T06:39:41.506Z,94.3
2019-05-10T06:40:48.246Z,94.5
2019-05-10T06:41:58.328Z,94.7
2019-05-10T06:43:00.234Z,94.6
2019-05-10T06:44:02.199Z,94.5
2019-05-10T06:45:14.611Z,94.6
2019-05-10T06:46:17.545Z,94.5
2019-05-10T06:47:22.427Z,94.7
2019-05-10T06:48:33.570Z,94.5
2019-05-10T06:49:35.613Z,94.6
2019-05-10T06:50:51.585Z,94.4
2019-05-10T06:51:53.447Z,94.2
2019-05-10T06:53:07.295Z,94.4
2019-05-10T06:54:12.626Z,94.3
2019-05-10T06:55:14.487Z,94
2019-05-10T06:56:16.352Z,93.9
2019-05-10T06:57:19.844Z,94.3
2019-05-10T06:58:21.702Z,94.2
2019-05-10T06:59:26.347Z,94
2019-05-10T07:00:28.252Z,93.8
2019-05-10T07:01:30.112Z,93.7
2019-05-10T07:02:33.032Z,93.7
2019-05-10T07:03:34.619Z,93.7
2019-05-10T07:04:41.497Z,93.6
2019-05-10T07:05:43.071Z,93.6
2019-05-10T07:06:44.945Z,93.7
2019-05-10T07:07:46.809Z,93.7
2019-05-10T07:08:59.172Z,93.5
2019-05-10T07:10:18.535Z,93.7
2019-05-10T07:11:26.655Z,93.9
2019-05-10T07:12:30.717Z,93.3
2019-05-10T07:13:32.584Z,93.2
2019-05-10T07:14:34.447Z,93.4
2019-05-10T07:15:44.559Z,93.3
2019-05-10T07:16:46.361Z,93.3
2019-05-10T07:17:48.214Z,93.3
2019-05-10T07:18:54.688Z,92.9
2019-05-10T07:20:03.181Z,92.5
2019-05-10T07:21:08.714Z,92
2019-05-10T07:22:10.646Z,92
2019-05-10T07:23:12.510Z,92.1
2019-05-10T07:24:26.878Z,92.1
2019-05-10T07:25:29.144Z,92.2
2019-05-10T07:26:31.008Z,91.8
2019-05-10T07:27:38.547Z,91.7
2019-05-10T07:28:40.709Z,91.5
2019-05-10T07:29:46.378Z,91.8
2019-05-10T07:30:48.234Z,91.8
2019-05-10T07:31:50.100Z,91.6
2019-05-10T07:33:01.522Z,91.8
2019-05-10T07:34:03.453Z,91.5
2019-05-10T07:35:05.325Z,91.3
2019-05-10T07:36:20.278Z,91.2
2019-05-10T07:37:31.918Z,91.5
2019-05-10T07:38:33.897Z,91.3
2019-05-10T07:39:35.758Z,91.5
2019-05-10T07:40:37.624Z,91.7
2019-05-10T07:41:39.494Z,91.4
2019-05-10T07:42:47.123Z,91.6
2019-05-10T07:43:49.030Z,91.6
2019-05-10T07:44:50.904Z,92
2019-05-10T07:45:58.487Z,92.1
2019-05-10T07:47:09.867Z,91.9
2019-05-10T07:48:11.731Z,92.2
2019-05-10T07:49:13.594Z,92.2
2019-05-10T07:50:15.459Z,92.2
2019-05-10T07:51:17.324Z,92.3
2019-05-10T07:52:29.941Z,92.1
2019-05-10T07:53:37.904Z,92
2019-05-10T07:54:47.748Z,92.2
2019-05-10T07:55:49.731Z,92.3
2019-05-10T07:56:51.595Z,92.3
2019-05-10T07:57:53.459Z,92.5
2019-05-10T07:59:06.354Z,92.9
2019-05-10T08:00:08.223Z,93.2
2019-05-10T08:01:09.522Z,93.1
2019-05-10T08:02:14.864Z,93.2
2019-05-10T08:03:23.974Z,93.5
2019-05-10T08:04:33.478Z,93.9
2019-05-10T08:05:35.500Z,93.9
2019-05-10T08:06:48.533Z,94
2019-05-10T08:07:53.682Z,94.1
2019-05-10T08:09:06.229Z,94.1
2019-05-10T08:10:11.026Z,94.5
2019-05-10T08:11:12.889Z,94.3
2019-05-10T08:12:14.754Z,94.1
2019-05-10T08:13:25.265Z,93.9
2019-05-10T08:14:29.578Z,93.6
2019-05-10T08:15:35.427Z,93.6
2019-05-10T08:16:39.303Z,94
2019-05-10T08:17:45.999Z,93.4
2019-05-10T08:19:00.876Z,92.9
2019-05-10T08:20:03.554Z,92.5
2019-05-10T08:21:32.730Z,92.3
2019-05-10T08:22:45.881Z,92.4
2019-05-10T08:23:47.654Z,91.6
2019-05-10T08:24:56.404Z,91
2019-05-10T08:25:58.360Z,90.6
2019-05-10T08:27:14.743Z,90.7
2019-05-10T08:28:16.846Z,91.4
2019-05-10T08:29:18.729Z,91.3
2019-05-10T08:30:29.384Z,91.6
2019-05-10T08:31:49.013Z,92.1
2019-05-10T08:33:09.257Z,91.6
2019-05-10T08:34:15.829Z,89.6
2019-05-10T08:35:19.338Z,86.9
2019-05-10T08:36:22.442Z,85.6
2019-05-10T08:37:37.670Z,85.9
2019-05-10T08:38:46.045Z,86.7
2019-05-10T08:40:13.273Z,86.5
2019-05-10T08:41:18.705Z,86.2
2019-05-10T08:42:45.111Z,87.1
2019-05-10T08:44:21.206Z,88
2019-05-10T08:45:25.434Z,88.6
2019-05-10T08:46:41.334Z,87.2
2019-05-10T08:47:45.569Z,87.3
2019-05-10T08:48:53.995Z,88.4
2019-05-10T08:50:26.266Z,87.4
2019-05-10T08:51:58.070Z,87.3
2019-05-10T08:53:11.788Z,85.9
2019-05-10T08:54:18.203Z,86.6
2019-05-10T08:55:22.453Z,86
2019-05-10T08:56:24.564Z,85
2019-05-10T08:57:26.429Z,85.7
2019-05-10T08:58:37.058Z,86.6
2019-05-10T08:59:38.836Z,86.6
2019-05-10T09:01:10.925Z,84.6
2019-05-10T09:02:33.389Z,85.6
2019-05-10T09:03:35.257Z,85
2019-05-10T09:04:50.131Z,85.4
2019-05-10T09:05:54.197Z,87
2019-05-10T09:07:02.641Z,83.4
2019-05-10T09:08:11.491Z,82.2
2019-05-10T09:09:43.007Z,82.1
2019-05-10T09:10:54.072Z,83.2
2019-05-10T09:12:03.963Z,81.5
2019-05-10T09:13:13.698Z,82.6
2019-05-10T09:14:23.992Z,83
2019-05-10T09:15:25.960Z,81.4
2019-05-10T09:16:41.198Z,78.7
2019-05-10T09:18:07.442Z,78.9
2019-05-10T09:19:09.408Z,81.5
2019-05-10T09:20:26.263Z,78.6
2019-05-10T09:21:28.399Z,77.2
2019-05-10T09:22:38.682Z,78.1
2019-05-10T09:23:43.023Z,78.1
2019-05-10T09:24:50.023Z,79.4
2019-05-10T09:25:54.399Z,78.4
2019-05-10T09:26:57.613Z,77.1
2019-05-10T09:28:14.732Z,77.2
2019-05-10T09:29:18.218Z,77.2
2019-05-10T09:30:22.419Z,77.4
2019-05-10T09:31:26.322Z,76.8
2019-05-10T09:32:31.341Z,77.3
2019-05-10T09:33:34.878Z,78.6
2019-05-10T09:34:49.447Z,80.5
2019-05-10T09:36:03.358Z,78.5
2019-05-10T09:37:13.300Z,77.9
2019-05-10T09:38:18.795Z,76.5
2019-05-10T09:39:25.630Z,74.6
2019-05-10T09:40:27.210Z,74.7
2019-05-10T09:41:38.419Z,75.5
2019-05-10T09:42:43.935Z,75.5
2019-05-10T09:43:53.554Z,76.8
2019-05-10T09:44:55.307Z,77.8
2019-05-10T09:45:57.188Z,77
2019-05-10T09:46:58.764Z,76.4
2019-05-10T09:48:04.595Z,78.1
2019-05-10T09:49:18.462Z,78.7
2019-05-10T09:50:23.315Z,77.7
2019-05-10T09:51:33.043Z,78.7
2019-05-10T09:52:35.096Z,79.5
2019-05-10T09:53:38.876Z,78.7
2019-05-10T09:54:40.745Z,77.4
2019-05-10T09:55:52.134Z,78.1
2019-05-10T09:57:04.397Z,79.8
2019-05-10T09:58:09.125Z,79.6
2019-05-10T09:59:10.988Z,79.1
2019-05-10T10:00:12.851Z,77.7
2019-05-10T10:01:21.885Z,76.8
2019-05-10T10:02:33.767Z,76
2019-05-10T10:03:44.959Z,77.9
2019-05-10T10:04:49.038Z,78.7
2019-05-10T10:06:05.040Z,78.8
2019-05-10T10:07:12.500Z,77.4
2019-05-10T10:08:14.091Z,77.3
2019-05-10T10:09:17.712Z,75.1
2019-05-10T10:10:32.395Z,76
2019-05-10T10:11:34.040Z,76.8
2019-05-10T10:12:37.825Z,77.1
2019-05-10T10:13:44.137Z,76.9
2019-05-10T10:15:03.033Z,78
2019-05-10T10:16:14.837Z,76.4
2019-05-10T10:17:20.630Z,76.2
2019-05-10T10:18:28.246Z,75.6
2019-05-10T10:19:30.260Z,75.5
2019-05-10T10:20:43.375Z,75.5
2019-05-10T10:21:49.053Z,75.8
2019-05-10T10:22:55.018Z,76.1
2019-05-10T10:24:00.635Z,74.5
2019-05-10T10:25:20.137Z,76.2
2019-05-10T10:26:23.012Z,76.4
2019-05-10T10:27:34.763Z,77.7
2019-05-10T10:28:40.791Z,78.5
2019-05-10T10:29:42.652Z,79
2019-05-10T10:30:44.517Z,77.3
2019-05-10T10:32:08.331Z,75.1
2019-05-10T10:33:16.072Z,77.2
2019-05-10T10:34:38.468Z,77.6
2019-05-10T10:35:44.636Z,77.5
2019-05-10T10:36:49.345Z,75.4
2019-05-10T10:37:51.207Z,75
2019-05-10T10:38:52.795Z,75
2019-05-10T10:40:05.132Z,75.2
2019-05-10T10:41:10.055Z,77
2019-05-10T10:42:13.683Z,75.7
2019-05-10T10:43:17.724Z,76.1
2019-05-10T10:44:19.794Z,75.3
2019-05-10T10:45:21.377Z,78
2019-05-10T10:46:23.236Z,78.9
2019-05-10T10:47:32.330Z,77.6
2019-05-10T10:48:34.234Z,77.6
2019-05-10T10:49:38.378Z,77
2019-05-10T10:50:51.054Z,75.5
2019-05-10T10:51:59.800Z,75.9
2019-05-10T10:53:01.665Z,77.5
2019-05-10T10:54:03.534Z,75.8
2019-05-10T10:55:11.661Z,76.4
2019-05-10T10:56:17.362Z,77.3
2019-05-10T10:57:19.378Z,74.8
2019-05-10T10:58:20.951Z,74.3
2019-05-10T10:59:22.536Z,73.2
2019-05-10T11:00:24.125Z,72.5
2019-05-10T11:01:49.382Z,74.5
2019-05-10T11:03:34.067Z,72.7
2019-05-10T11:04:48.801Z,73.8
2019-05-10T11:05:50.759Z,72.3
2019-05-10T11:07:11.086Z,70.1
2019-05-10T11:08:13.024Z,71.7
2019-05-10T11:09:14.888Z,71.2
2019-05-10T11:10:22.228Z,70.8
2019-05-10T11:11:24.214Z,72.5
2019-05-10T11:12:42.616Z,71.6
2019-05-10T11:13:58.493Z,70.9
2019-05-10T11:15:11.068Z,71.8
2019-05-10T11:16:27.168Z,70.9
2019-05-10T11:17:31.216Z,70.7
2019-05-10T11:18:33.090Z,70.9
2019-05-10T11:19:34.960Z,70.9
2019-05-10T11:20:41.792Z,71.9
2019-05-10T11:21:55.093Z,71.9
2019-05-10T11:22:56.958Z,71.4
2019-05-10T11:24:01.232Z,71.1
2019-05-10T11:25:12.664Z,72
2019-05-10T11:26:14.229Z,71.3
2019-05-10T11:27:17.914Z,70.7
2019-05-10T11:28:21.159Z,71.8
2019-05-10T11:29:30.606Z,71.9
2019-05-10T11:30:33.160Z,69.6
2019-05-10T11:31:35.027Z,67.2
2019-05-10T11:32:36.893Z,67.4
2019-05-10T11:33:41.878Z,71.3
2019-05-10T11:35:05.839Z,70.1
2019-05-10T11:36:11.381Z,69.2
2019-05-10T11:37:18.347Z,68.1
2019-05-10T11:38:33.709Z,68.5
2019-05-10T11:39:46.992Z,66
2019-05-10T11:40:51.308Z,65.1
2019-05-10T11:42:07.073Z,65.4
2019-05-10T11:43:09.250Z,66.2
2019-05-10T11:44:12.586Z,68.6
2019-05-10T11:45:14.430Z,66.9
2019-05-10T11:46:16.294Z,67
2019-05-10T11:47:27.369Z,66
2019-05-10T11:48:38.829Z,65.1
2019-05-10T11:49:43.608Z,62.8
2019-05-10T11:50:45.199Z,63.1
2019-05-10T11:53:54.547Z,63.3
2019-05-10T11:59:01.713Z,63.8
2019-05-10T12:00:03.619Z,64.9
2019-05-10T12:01:19.349Z,65.8
2019-05-10T12:04:39.364Z,66.8
2019-05-10T12:05:44.941Z,65
2019-05-10T12:06:51.446Z,64.9
2019-05-10T12:07:55.318Z,66.2
2019-05-10T12:09:04.622Z,66.4
2019-05-10T12:14:32.907Z,65.8
2019-05-10T12:15:34.771Z,66.7
2019-05-10T12:16:36.642Z,64.8
2019-05-10T12:17:43.797Z,62.3
2019-05-10T12:22:52.395Z,63
2019-05-10T12:27:10.737Z,64.7
2019-05-10T12:28:42.660Z,64.5
2019-05-10T12:29:59.434Z,69.6
2019-05-10T12:31:13.321Z,70
2019-05-10T12:32:21.035Z,71
2019-05-10T12:33:28.039Z,72.6
2019-05-10T12:34:31.685Z,72.6
2019-05-10T12:35:46.894Z,73
2019-05-10T12:36:49.011Z,72.8
2019-05-10T12:37:54.764Z,71.8
2019-05-10T12:39:01.165Z,72.6
2019-05-10T12:40:15.009Z,73.1
2019-05-10T12:41:16.896Z,72
2019-05-10T12:42:21.631Z,67.8
2019-05-10T12:43:23.586Z,68.2
2019-05-10T12:44:25.456Z,64.6
2019-05-10T12:45:27.323Z,66.1
2019-05-10T12:46:31.147Z,67.2
2019-05-10T12:47:34.270Z,67.1
2019-05-10T12:48:36.554Z,67.5
2019-05-10T12:49:40.755Z,66.4
2019-05-10T12:50:44.538Z,61.8
2019-05-10T12:51:46.406Z,62.3
2019-05-10T12:53:04.572Z,63.9
2019-05-10T12:54:25.480Z,65.7
2019-05-10T12:55:27.490Z,61.9
2019-05-10T12:56:43.692Z,63.1
2019-05-10T12:57:47.243Z,62.1
2019-05-10T12:58:59.544Z,63.2
2019-05-10T13:00:01.245Z,65.6
2019-05-10T13:01:12.571Z,65.7
2019-05-10T13:02:14.445Z,67.5
2019-05-10T13:03:25.105Z,67.7
2019-05-10T13:04:41.350Z,63
2019-05-10T13:05:53.710Z,65.6
2019-05-10T13:06:55.609Z,64.3
2019-05-10T13:07:57.459Z,63.8
2019-05-10T13:08:59.069Z,66.5
2019-05-10T13:10:08.188Z,64.4
2019-05-10T13:11:11.323Z,62.3
2019-05-10T13:12:12.911Z,61.5
2019-05-10T13:13:23.125Z,61.7
2019-05-10T13:14:31.309Z,63.4
2019-05-10T13:15:34.024Z,66.2
2019-05-10T13:16:35.617Z,68
2019-05-10T13:17:37.488Z,62.4
2019-05-10T13:18:53.277Z,63.9
2019-05-10T13:20:00.577Z,62.9
2019-05-10T13:21:02.598Z,62.7
2019-05-10T13:22:08.660Z,63.9
2019-05-10T13:23:18.456Z,65.3
2019-05-10T13:24:20.371Z,65.7
2019-05-10T13:25:22.233Z,63.5
2019-05-10T13:26:24.103Z,64.7
2019-05-10T13:27:25.968Z,63.9
2019-05-10T13:28:27.834Z,65.3
2019-05-10T13:29:29.698Z,66.9
2019-05-10T13:30:31.558Z,67.5
2019-05-10T13:31:44.392Z,67.1
2019-05-10T13:32:46.318Z,68.9
2019-05-10T13:33:48.181Z,68.1
2019-05-10T13:34:50.046Z,67.8
2019-05-10T13:35:58.479Z,67.8
2019-05-10T13:37:00.644Z,67.8
2019-05-10T13:38:06.440Z,69.5
2019-05-10T13:39:07.951Z,69.2
2019-05-10T13:40:09.816Z,68.4
2019-05-10T13:41:11.499Z,68.3
2019-05-10T13:42:13.366Z,67
2019-05-10T13:43:26.392Z,67.7
2019-05-10T13:44:29.838Z,68.9
2019-05-10T13:45:37.533Z,67.7
2019-05-10T13:46:41.156Z,68.2
2019-05-10T13:47:43.020Z,68.7
2019-05-10T13:48:44.884Z,70
2019-05-10T13:49:49.582Z,68.7
2019-05-10T13:50:51.186Z,69.2
2019-05-10T13:51:53.053Z,69.2
2019-05-10T13:52:54.918Z,70.1
2019-05-10T13:54:00.885Z,68.3
2019-05-10T13:55:06.161Z,68.4
2019-05-10T13:56:07.449Z,68.2
2019-05-10T13:57:09.319Z,68.2
2019-05-10T13:58:11.187Z,67.6
2019-05-10T13:59:18.462Z,69.1
2019-05-10T14:00:20.347Z,68.9
2019-05-10T14:01:22.210Z,66.8
2019-05-10T14:02:34.802Z,67
2019-05-10T14:03:53.818Z,67.8
2019-05-10T14:05:04.615Z,67.8
2019-05-10T14:06:06.187Z,67.9
2019-05-10T14:07:08.050Z,68.1
2019-05-10T14:08:09.920Z,69.7
2019-05-10T14:09:11.503Z,67.2
2019-05-10T14:10:24.934Z,65.8
2019-05-10T14:11:27.009Z,66.1
2019-05-10T14:12:28.877Z,67.9
2019-05-10T14:13:41.222Z,68.4
2019-05-10T14:14:44.702Z,68.9
2019-05-10T14:15:46.566Z,66
2019-05-10T14:16:48.432Z,69.7
2019-05-10T14:17:50.300Z,68.8
2019-05-10T14:18:52.165Z,71.8
2019-05-10T14:19:54.034Z,69.7
2019-05-10T14:20:55.902Z,68
2019-05-10T14:21:57.776Z,67.3
2019-05-10T14:22:59.674Z,65.1
2019-05-10T14:24:01.526Z,64.3
2019-05-10T14:25:03.395Z,66.1
2019-05-10T14:26:18.069Z,68.7
2019-05-10T14:27:20.042Z,66.1
2019-05-10T14:28:21.909Z,67.1
2019-05-10T14:29:36.683Z,69.2
2019-05-10T14:30:38.748Z,66.7
2019-05-10T14:31:40.614Z,67.7
2019-05-10T14:32:42.481Z,65.6
2019-05-10T14:34:13.995Z,65.8
2019-05-10T14:35:24.466Z,63.9
2019-05-10T14:36:26.140Z,65.4
2019-05-10T14:37:28.002Z,64.5
2019-05-10T14:38:29.597Z,66.6
2019-05-10T14:39:31.468Z,65.7
2019-05-10T14:40:33.321Z,65.2
2019-05-10T14:41:35.183Z,66.1
2019-05-10T14:42:40.700Z,65.9
2019-05-10T14:43:42.290Z,65.4
2019-05-10T14:44:44.189Z,66.4
2019-05-10T14:45:45.953Z,67.3
2019-05-10T14:46:47.821Z,66.2